Time;durP1;ratioP1;P1;durP2;ratioP2;P2;SDS_P1;SDS_P2;PMS_P1;PMS_P2;Temp;Humidity;BMP_temperature;BMP_pressure;BME280_temperature;BME280_humidity;BME280_pressure;Samples;Min_cycle;Max_cycle;Signal;HPM_P1;HPM_P2
2022/04/30 00:01:01;;;;;;;13.15;10.43;;;12.30;99.90;;;;;;5012204;28;20193;-66
2022/04/30 00:03:28;;;;;;;11.60;9.93;;;12.20;99.90;;;;;;5012358;28;20171;-66
2022/04/30 00:05:56;;;;;;;12.20;9.98;;;12.20;99.90;;;;;;5013866;28;20171;-64
2022/04/30 00:08:22;;;;;;;13.13;9.80;;;12.20;99.90;;;;;;5012489;28;20250;-66
2022/04/30 00:10:55;;;;;;;12.80;9.43;;;12.10;99.90;;;;;;5012938;28;20186;-66
2022/04/30 00:13:21;;;;;;;10.88;9.10;;;12.10;99.90;;;;;;5013047;28;20178;-66
2022/04/30 00:15:49;;;;;;;10.40;9.35;;;12.10;99.90;;;;;;5013678;28;20186;-66
2022/04/30 00:18:18;;;;;;;11.57;8.98;;;12.10;99.90;;;;;;5011556;28;20245;-66
2022/04/30 00:20:47;;;;;;;11.57;8.98;;;12.00;99.90;;;;;;5011959;28;20202;-66
2022/04/30 00:23:20;;;;;;;11.00;8.95;;;12.00;99.90;;;;;;5013422;28;20178;-66
2022/04/30 00:25:49;;;;;;;11.95;8.65;;;12.00;99.90;;;;;;5010297;28;20261;-66
2022/04/30 00:28:17;;;;;;;9.95;8.57;;;12.00;99.90;;;;;;5011501;28;20221;-66
2022/04/30 00:30:44;;;;;;;9.25;8.25;;;11.90;99.90;;;;;;5012744;28;20201;-66
2022/04/30 00:33:10;;;;;;;9.57;8.57;;;11.90;99.90;;;;;;5013184;28;20182;-66
2022/04/30 00:35:40;;;;;;;9.18;8.23;;;11.90;99.90;;;;;;5010259;28;20195;-66
2022/04/30 00:38:06;;;;;;;11.20;8.27;;;11.90;99.90;;;;;;5009654;28;20209;-66
2022/04/30 00:40:34;;;;;;;9.20;8.18;;;11.90;99.90;;;;;;5012946;28;20187;-66
2022/04/30 00:43:01;;;;;;;8.95;8.02;;;11.90;99.90;;;;;;5011461;28;20213;-66
2022/04/30 00:45:27;;;;;;;12.57;7.53;;;11.90;99.90;;;;;;5012336;28;20193;-64
2022/04/30 00:47:55;;;;;;;9.87;8.10;;;11.80;99.90;;;;;;5012462;28;20222;-65
2022/04/30 00:50:21;;;;;;;8.70;7.85;;;11.80;99.90;;;;;;5011943;28;20245;-66
2022/04/30 00:52:51;;;;;;;9.13;8.10;;;11.80;99.90;;;;;;5010947;28;20204;-65
2022/04/30 00:55:25;;;;;;;8.77;7.88;;;11.80;99.90;;;;;;5011584;28;20194;-65
2022/04/30 00:57:54;;;;;;;9.57;7.90;;;11.70;99.90;;;;;;5012820;28;20178;-65
2022/04/30 01:00:20;;;;;;;9.32;7.45;;;11.70;99.90;;;;;;5009765;28;20193;-65
2022/04/30 01:02:48;;;;;;;8.73;7.53;;;11.70;99.90;;;;;;5009522;28;20190;-65
2022/04/30 01:05:14;;;;;;;9.65;7.63;;;11.60;99.90;;;;;;5011395;28;20190;-65
2022/04/30 01:07:42;;;;;;;7.78;6.82;;;11.60;99.90;;;;;;5011245;28;20206;-63
2022/04/30 01:10:08;;;;;;;9.05;7.53;;;11.60;99.90;;;;;;5010937;28;20175;-65
2022/04/30 01:12:37;;;;;;;8.07;6.90;;;11.60;99.90;;;;;;5011187;28;20171;-65
2022/04/30 01:15:06;;;;;;;8.55;6.75;;;11.50;99.90;;;;;;5027186;28;20198;-66
2022/04/30 01:17:32;;;;;;;9.10;7.47;;;11.50;99.90;;;;;;5012029;28;20201;-66
2022/04/30 01:20:02;;;;;;;8.33;6.90;;;11.50;99.90;;;;;;5013131;28;20190;-65
2022/04/30 01:22:39;;;;;;;10.43;7.53;;;11.50;99.90;;;;;;5012336;28;20245;-66
2022/04/30 01:25:05;;;;;;;7.97;6.80;;;11.50;99.90;;;;;;5012703;28;20194;-65
2022/04/30 01:27:31;;;;;;;8.83;6.93;;;11.40;99.90;;;;;;5009241;28;20257;-66
2022/04/30 01:30:01;;;;;;;9.03;7.57;;;11.40;99.90;;;;;;5008817;28;20174;-65
2022/04/30 01:38:07;;;;;;;7.40;6.60;;;11.40;99.90;;;;;;5013280;28;20205;-65
2022/04/30 01:40:33;;;;;;;7.80;6.47;;;11.30;99.90;;;;;;5010360;28;20175;-66
2022/04/30 01:43:05;;;;;;;7.90;6.90;;;11.30;99.90;;;;;;5011526;28;20171;-66
2022/04/30 01:45:33;;;;;;;7.87;6.47;;;11.30;99.90;;;;;;5009142;28;20202;-65
2022/04/30 01:48:02;;;;;;;7.67;6.50;;;11.30;99.90;;;;;;5025533;28;20245;-65
2022/04/30 01:50:28;;;;;;;7.63;6.73;;;11.30;99.90;;;;;;5011338;28;20179;-65
2022/04/30 01:52:54;;;;;;;7.50;6.70;;;11.20;99.90;;;;;;5010936;28;20183;-66
2022/04/30 01:55:19;;;;;;;8.33;7.03;;;11.20;99.90;;;;;;5010945;28;20477;-65
2022/04/30 01:57:47;;;;;;;8.13;6.90;;;11.20;99.90;;;;;;5011396;28;20273;-65
2022/04/30 02:00:14;;;;;;;9.67;6.93;;;11.10;99.90;;;;;;5010313;28;20190;-66
2022/04/30 02:02:46;;;;;;;7.70;6.40;;;11.10;99.90;;;;;;5010384;28;20244;-64
2022/04/30 02:05:13;;;;;;;8.13;6.63;;;11.10;99.90;;;;;;5011096;28;20309;-66
2022/04/30 02:08:10;;;;;;;7.83;6.47;;;11.10;99.90;;;;;;5009452;28;20265;-67
2022/04/30 02:10:37;;;;;;;8.93;6.53;;;11.00;99.90;;;;;;5005818;28;20198;-66
2022/04/30 02:13:06;;;;;;;7.90;6.77;;;11.00;99.90;;;;;;5009476;28;20179;-66
2022/04/30 02:15:34;;;;;;;8.53;7.00;;;10.90;99.90;;;;;;5011074;28;20222;-65
2022/04/30 02:18:04;;;;;;;7.47;6.60;;;10.90;99.90;;;;;;5010123;28;20241;-65
2022/04/30 02:20:34;;;;;;;8.77;7.27;;;10.80;99.90;;;;;;5010797;28;20186;-65
2022/04/30 02:23:02;;;;;;;9.27;7.00;;;10.80;99.90;;;;;;5012541;28;20250;-65
2022/04/30 02:25:29;;;;;;;10.03;7.13;;;10.80;99.90;;;;;;5008995;28;20199;-66
2022/04/30 02:28:04;;;;;;;9.27;7.57;;;10.70;99.90;;;;;;5013825;28;20272;-66
2022/04/30 02:30:31;;;;;;;8.17;6.97;;;10.70;99.90;;;;;;5015072;28;20178;-65
2022/04/30 02:33:10;;;;;;;7.50;6.67;;;10.70;99.90;;;;;;5014218;28;20248;-65
2022/04/30 02:35:37;;;;;;;7.20;6.47;;;10.70;99.90;;;;;;5013650;28;20231;-66
2022/04/30 02:38:08;;;;;;;9.03;6.97;;;10.70;99.90;;;;;;5014550;28;20199;-66
2022/04/30 02:40:34;;;;;;;9.43;7.07;;;10.70;99.90;;;;;;5013824;28;20197;-67
2022/04/30 02:43:10;;;;;;;8.33;6.70;;;10.70;99.90;;;;;;5014329;28;20182;-67
2022/04/30 02:45:37;;;;;;;8.60;7.00;;;10.70;99.90;;;;;;5014515;28;20193;-66
2022/04/30 02:48:06;;;;;;;11.73;7.07;;;10.70;99.90;;;;;;5029898;28;20326;-66
2022/04/30 02:50:33;;;;;;;9.17;6.93;;;10.70;99.90;;;;;;5012917;28;20275;-64
2022/04/30 02:52:59;;;;;;;8.30;6.80;;;10.70;99.90;;;;;;5015103;28;20252;-65
2022/04/30 02:55:25;;;;;;;7.53;6.73;;;10.70;99.90;;;;;;5014678;28;20303;-66
2022/04/30 03:00:52;;;;;;;7.83;6.73;;;10.70;99.90;;;;;;5011925;28;20221;-65
2022/04/30 03:03:22;;;;;;;7.87;7.03;;;10.60;99.90;;;;;;5011908;28;20352;-65
2022/04/30 03:05:53;;;;;;;7.70;6.53;;;10.60;99.90;;;;;;5011852;28;20249;-65
2022/04/30 03:08:20;;;;;;;8.63;7.03;;;10.60;99.90;;;;;;5013082;28;20225;-65
2022/04/30 03:10:50;;;;;;;9.37;7.73;;;10.60;99.90;;;;;;5013965;28;20271;-65
2022/04/30 03:13:21;;;;;;;8.17;6.80;;;10.60;99.90;;;;;;5012575;28;20253;-65
2022/04/30 03:15:53;;;;;;;8.97;6.87;;;10.60;99.90;;;;;;5012175;28;20202;-65
2022/04/30 03:23:39;;;;;;;9.53;7.27;;;10.50;99.90;;;;;;5014086;28;20182;-65
2022/04/30 03:26:12;;;;;;;9.67;7.17;;;10.50;99.90;;;;;;5017954;28;20198;-65
2022/04/30 03:28:40;;;;;;;9.43;7.37;;;10.50;99.90;;;;;;5014237;28;20260;-65
2022/04/30 03:31:08;;;;;;;8.27;6.77;;;10.50;99.90;;;;;;5014094;28;20324;-64
2022/04/30 03:33:34;;;;;;;9.97;7.57;;;10.50;99.90;;;;;;5013936;28;20189;-65
2022/04/30 03:35:59;;;;;;;8.63;7.57;;;10.40;99.90;;;;;;5012803;28;20187;-65
2022/04/30 03:38:27;;;;;;;8.67;7.60;;;10.40;99.90;;;;;;5011182;28;20237;-65
2022/04/30 03:40:55;;;;;;;10.47;7.60;;;10.40;99.90;;;;;;5012667;28;20183;-64
2022/04/30 03:43:21;;;;;;;10.27;7.77;;;10.40;99.90;;;;;;5013291;28;20206;-65
2022/04/30 03:45:48;;;;;;;9.57;7.50;;;10.30;99.90;;;;;;5014737;28;20213;-65
2022/04/30 03:48:14;;;;;;;8.97;7.63;;;10.40;99.90;;;;;;5013839;28;20799;-65
2022/04/30 03:50:41;;;;;;;9.57;7.37;;;10.30;99.90;;;;;;5012272;28;21103;-65
2022/04/30 03:53:07;;;;;;;9.83;7.60;;;10.30;99.90;;;;;;5014216;28;20204;-65
2022/04/30 03:55:33;;;;;;;9.00;7.77;;;10.30;99.90;;;;;;5013580;28;20234;-63
2022/04/30 03:58:01;;;;;;;9.90;7.97;;;10.30;99.90;;;;;;5014322;28;20192;-65
2022/04/30 04:00:27;;;;;;;8.97;7.33;;;10.30;99.90;;;;;;5011510;28;20241;-65
2022/04/30 04:02:59;;;;;;;9.77;8.23;;;10.20;99.90;;;;;;5013029;28;20328;-65
2022/04/30 04:05:28;;;;;;;9.37;7.30;;;10.20;99.90;;;;;;5014169;28;20183;-65
2022/04/30 04:07:59;;;;;;;10.73;8.17;;;10.20;99.90;;;;;;5013255;28;20306;-65
2022/04/30 04:10:27;;;;;;;9.83;8.07;;;10.20;99.90;;;;;;5010845;28;20222;-64
2022/04/30 04:17:37;;;;;;;10.57;8.33;;;10.20;99.90;;;;;;5012340;28;20182;-65
2022/04/30 04:18:29;;;;;;;9.83;7.30;;;10.20;99.90;;;;;;5013801;28;20265;-65
2022/04/30 04:20:56;;;;;;;11.13;8.13;;;10.20;99.90;;;;;;5011690;28;20201;-66
2022/04/30 04:23:24;;;;;;;9.93;7.00;;;10.10;99.90;;;;;;5012156;28;20177;-65
2022/04/30 04:25:59;;;;;;;8.60;7.40;;;10.10;99.90;;;;;;5012955;28;20198;-65
2022/04/30 04:28:25;;;;;;;9.80;7.70;;;10.10;99.90;;;;;;5011037;28;20213;-64
2022/04/30 04:30:52;;;;;;;8.90;7.80;;;10.00;99.90;;;;;;5013469;28;20193;-65
2022/04/30 04:33:23;;;;;;;7.77;6.93;;;10.00;99.90;;;;;;5011824;28;20197;-65
2022/04/30 04:35:48;;;;;;;9.87;7.43;;;10.00;99.90;;;;;;5013231;28;20198;-66
2022/04/30 04:38:14;;;;;;;9.60;6.73;;;10.00;99.90;;;;;;5012649;28;20206;-66
2022/04/30 04:40:42;;;;;;;10.43;7.73;;;9.90;99.90;;;;;;5009316;28;20206;-66
2022/04/30 04:43:12;;;;;;;9.37;7.73;;;9.90;99.90;;;;;;5012384;28;20186;-65
2022/04/30 04:45:40;;;;;;;9.23;7.63;;;9.80;99.90;;;;;;5012309;28;20178;-65
2022/04/30 04:48:10;;;;;;;9.37;7.40;;;9.80;99.90;;;;;;5012190;28;20206;-65
2022/04/30 04:50:41;;;;;;;7.80;6.90;;;9.80;99.90;;;;;;5011612;28;20205;-65
2022/04/30 04:53:12;;;;;;;8.77;6.53;;;9.80;99.90;;;;;;5012612;28;20201;-65
2022/04/30 04:55:38;;;;;;;8.80;6.93;;;9.70;99.90;;;;;;5012695;28;20170;-65
2022/04/30 04:58:03;;;;;;;8.30;6.93;;;9.70;99.90;;;;;;5012907;28;20213;-65
2022/04/30 05:00:29;;;;;;;8.83;6.77;;;9.70;99.90;;;;;;5012849;28;20214;-64
2022/04/30 05:02:55;;;;;;;8.30;6.50;;;9.70;99.90;;;;;;5012044;28;20213;-65
2022/04/30 05:05:21;;;;;;;7.60;6.67;;;9.60;99.90;;;;;;5011036;28;20194;-65
2022/04/30 05:07:46;;;;;;;7.40;6.60;;;9.60;99.90;;;;;;5012167;28;20206;-66
2022/04/30 05:10:15;;;;;;;8.67;6.83;;;9.50;99.90;;;;;;5012152;28;20258;-67
2022/04/30 05:12:43;;;;;;;9.13;6.77;;;9.50;99.90;;;;;;5012783;28;20260;-64
2022/04/30 05:15:09;;;;;;;8.97;7.60;;;9.50;99.90;;;;;;5012317;28;20203;-64
2022/04/30 05:17:34;;;;;;;10.20;7.10;;;9.50;99.90;;;;;;5012576;28;20197;-65
2022/04/30 05:20:01;;;;;;;8.43;6.60;;;9.40;99.90;;;;;;5010606;28;20290;-64
2022/04/30 05:22:27;;;;;;;8.17;6.57;;;9.40;99.90;;;;;;5010796;28;20277;-64
2022/04/30 05:24:53;;;;;;;8.87;6.90;;;9.40;99.90;;;;;;5010686;28;20285;-65
2022/04/30 05:27:21;;;;;;;8.17;6.60;;;9.40;99.90;;;;;;5011426;28;20226;-65
2022/04/30 05:29:49;;;;;;;7.67;6.20;;;9.40;99.90;;;;;;5010929;28;20237;-65
2022/04/30 05:32:17;;;;;;;10.23;7.33;;;9.40;99.90;;;;;;5009944;28;20290;-65
2022/04/30 05:34:42;;;;;;;8.13;6.77;;;9.40;99.90;;;;;;5010567;28;20286;-66
2022/04/30 05:37:08;;;;;;;7.97;7.17;;;9.40;99.90;;;;;;5013267;28;20214;-66
2022/04/30 05:39:33;;;;;;;8.20;6.90;;;9.40;99.90;;;;;;5012505;28;20225;-66
2022/04/30 05:42:01;;;;;;;8.30;7.30;;;9.40;99.90;;;;;;5010411;28;20182;-65
2022/04/30 05:44:29;;;;;;;9.80;7.20;;;9.40;99.90;;;;;;5010374;28;20174;-65
2022/04/30 05:46:55;;;;;;;8.37;6.60;;;9.30;99.90;;;;;;5013041;28;20241;-66
2022/04/30 05:49:21;;;;;;;9.10;7.83;;;9.40;99.90;;;;;;5012600;28;20202;-66
2022/04/30 05:51:49;;;;;;;9.07;8.13;;;9.40;99.90;;;;;;5012396;28;20225;-66
2022/04/30 05:54:16;;;;;;;8.73;7.83;;;9.50;99.90;;;;;;5013287;28;20262;-65
2022/04/30 05:56:41;;;;;;;9.87;7.97;;;9.50;99.90;;;;;;5011837;28;20261;-66
2022/04/30 05:59:08;;;;;;;9.27;8.07;;;9.60;99.90;;;;;;5013168;28;20308;-66
2022/04/30 06:01:34;;;;;;;11.20;8.93;;;9.60;99.90;;;;;;5013306;28;20241;-66
2022/04/30 06:04:00;;;;;;;11.30;8.47;;;9.70;99.90;;;;;;5017165;28;20209;-65
2022/04/30 06:06:30;;;;;;;8.87;7.87;;;9.70;99.90;;;;;;5014715;28;20202;-64
2022/04/30 06:08:58;;;;;;;9.33;7.90;;;9.70;99.90;;;;;;5017240;28;20179;-65
2022/04/30 06:11:28;;;;;;;11.20;8.60;;;9.80;99.90;;;;;;5015971;28;20171;-65
2022/04/30 06:13:56;;;;;;;9.03;8.10;;;9.90;99.90;;;;;;5016813;28;20187;-66
2022/04/30 06:16:26;;;;;;;9.30;8.33;;;9.90;99.90;;;;;;5016050;28;20179;-65
2022/04/30 06:18:52;;;;;;;9.13;8.23;;;10.00;99.90;;;;;;5015850;28;20199;-65
